Zephyr Point, Nevada
Current Conditions -  °F | °C
As of 4:07 PM on Saturday 25 Oct 2014 (Local Time) from KTVL Reporting Station
Light Rain Light Rain  
Wind Chill: 34°   Ceiling: 2000
Heat Index: 39°   Visibility: 6mi
Dew Point: 34°   Wind: 7mph
Humidity: 82%   Direction: 150°SSE
Pressure: 30.15"   Gusts: NA
Location:  39.0164°N, 119.925°W
Report Text: KTVL 252307Z AUTO 15006KT 6SM -RA FEW009 BKN020 OVC027 04/01 A3015 RMK AO2 P0000 T00390011
Loading
Personal Weather Stations






























Interactive Weather Map
Tropical Storm Tracking
New forecast layout! Learn more

10-Day Weather Forecast

Advertisements
Track Severe Weather on mobile